Time;durP1;ratioP1;P1;durP2;ratioP2;P2;SDS_P1;SDS_P2;PMS_P1;PMS_P2;Temp;Humidity;BMP_temperature;BMP_pressure;BME280_temperature;BME280_humidity;BME280_pressure;Samples;Min_cycle;Max_cycle;Signal;HPM_P1;HPM_P2
2021/08/13 00:00:56;;;;;;;2.25;1.95;;;22.80;71.60;;;;;;5091368;28;20060;-50
2021/08/13 00:03:22;;;;;;;2.38;2.00;;;22.80;71.60;;;;;;5091991;28;20475;-49
2021/08/13 00:05:48;;;;;;;2.00;1.80;;;22.80;71.60;;;;;;5091189;28;20074;-45
2021/08/13 00:08:14;;;;;;;2.00;1.80;;;22.80;71.60;;;;;;5091508;28;20120;-49
2021/08/13 00:10:40;;;;;;;2.13;1.83;;;22.80;71.90;;;;;;5091819;28;20480;-51
2021/08/13 00:13:06;;;;;;;2.70;1.90;;;22.80;71.60;;;;;;5090846;28;20093;-45
2021/08/13 00:15:32;;;;;;;1.92;1.80;;;22.80;71.70;;;;;;5091266;28;20135;-49
2021/08/13 00:17:58;;;;;;;2.50;1.98;;;22.80;71.60;;;;;;5094585;28;20435;-49
2021/08/13 00:20:23;;;;;;;3.30;2.15;;;22.80;71.60;;;;;;5095691;28;20044;-48
2021/08/13 00:22:51;;;;;;;3.15;1.92;;;22.80;71.70;;;;;;5095269;28;20068;-48
2021/08/13 00:25:17;;;;;;;2.20;2.00;;;22.80;71.60;;;;;;5093704;28;20044;-51
2021/08/13 00:27:43;;;;;;;2.05;1.77;;;22.80;71.70;;;;;;5095264;28;20055;-48
2021/08/13 00:30:09;;;;;;;2.70;2.10;;;22.80;71.70;;;;;;5095047;28;20040;-47
2021/08/13 00:32:35;;;;;;;3.05;2.22;;;22.70;71.60;;;;;;5095343;28;20048;-51
2021/08/13 00:35:01;;;;;;;2.20;1.98;;;22.80;71.70;;;;;;5095769;28;20483;-50
2021/08/13 00:37:27;;;;;;;2.17;1.67;;;22.80;71.70;;;;;;5095462;28;20445;-47
2021/08/13 00:39:53;;;;;;;1.90;1.70;;;22.80;71.70;;;;;;5094066;28;20157;-44
2021/08/13 00:42:19;;;;;;;2.47;1.83;;;22.80;71.70;;;;;;5095140;28;20158;-49
2021/08/13 00:44:45;;;;;;;2.78;2.10;;;22.80;71.70;;;;;;5095302;28;20075;-46
2021/08/13 00:47:10;;;;;;;2.97;1.92;;;22.80;71.80;;;;;;5094884;28;20129;-45
2021/08/13 00:49:36;;;;;;;3.00;1.85;;;22.80;71.80;;;;;;5095260;28;20185;-47
2021/08/13 00:52:03;;;;;;;2.13;1.90;;;22.80;71.70;;;;;;5095078;28;20047;-47
2021/08/13 00:54:29;;;;;;;2.28;2.08;;;22.80;71.80;;;;;;5094953;28;20075;-47
2021/08/13 00:56:54;;;;;;;2.45;2.20;;;22.80;71.80;;;;;;5095291;28;20539;-46
2021/08/13 00:59:20;;;;;;;2.13;1.90;;;22.80;71.80;;;;;;5094910;28;20046;-48
2021/08/13 01:01:47;;;;;;;3.10;2.30;;;22.80;71.80;;;;;;5094342;28;20044;-46
2021/08/13 01:04:12;;;;;;;2.60;2.10;;;22.80;71.80;;;;;;5094470;28;20048;-52
2021/08/13 01:06:38;;;;;;;3.30;2.17;;;22.80;71.80;;;;;;5095416;28;20097;-49
2021/08/13 01:09:04;;;;;;;2.90;2.33;;;22.80;71.80;;;;;;5094459;28;20102;-47
2021/08/13 01:11:49;;;;;;;2.85;2.00;;;22.80;71.80;;;;;;5095153;28;20036;-47
2021/08/13 01:14:22;;;;;;;2.63;2.13;;;22.70;71.70;;;;;;5092708;28;20044;-49
2021/08/13 01:16:52;;;;;;;2.38;2.10;;;22.70;71.70;;;;;;5094658;28;20036;-48
2021/08/13 01:19:25;;;;;;;2.85;2.40;;;22.70;71.70;;;;;;5094567;28;20093;-50
2021/08/13 01:22:09;;;;;;;3.53;2.35;;;22.70;71.70;;;;;;5092188;28;20043;-50
2021/08/13 01:24:41;;;;;;;2.60;2.35;;;22.80;71.70;;;;;;5092031;28;20127;-44
2021/08/13 01:27:26;;;;;;;2.85;2.55;;;22.70;71.80;;;;;;5094245;28;20040;-48
2021/08/13 01:29:51;;;;;;;2.53;2.20;;;22.70;71.70;;;;;;5090656;28;20044;-48
2021/08/13 01:32:30;;;;;;;2.70;2.22;;;22.70;71.70;;;;;;5093879;28;20119;-46
2021/08/13 01:35:07;;;;;;;2.40;2.20;;;22.70;71.70;;;;;;5093232;28;20491;-44
2021/08/13 01:37:43;;;;;;;2.17;1.98;;;22.70;71.70;;;;;;5091251;28;20052;-48
2021/08/13 01:40:13;;;;;;;3.38;2.53;;;22.70;71.80;;;;;;5091077;28;20071;-45
2021/08/13 01:42:40;;;;;;;3.10;2.22;;;22.70;71.80;;;;;;5094212;28;20055;-48
2021/08/13 01:45:08;;;;;;;2.42;2.10;;;22.70;71.80;;;;;;5093424;28;20047;-45
2021/08/13 01:47:35;;;;;;;3.08;2.33;;;22.70;71.80;;;;;;5094193;28;20051;-46
2021/08/13 01:50:00;;;;;;;3.85;1.90;;;22.70;71.80;;;;;;5093420;28;20044;-44
2021/08/13 01:52:27;;;;;;;3.40;2.28;;;22.70;71.80;;;;;;5094324;28;20055;-46
2021/08/13 01:54:54;;;;;;;2.50;2.30;;;22.70;71.80;;;;;;5092399;28;20127;-45
2021/08/13 01:57:22;;;;;;;2.58;2.30;;;22.70;71.80;;;;;;5093497;28;20517;-46
2021/08/13 01:59:49;;;;;;;2.08;1.88;;;22.70;71.80;;;;;;5093920;28;20105;-44
2021/08/13 02:02:16;;;;;;;2.72;2.00;;;22.70;71.80;;;;;;5093688;28;20047;-45
2021/08/13 02:04:43;;;;;;;2.50;1.70;;;22.60;71.70;;;;;;5092598;28;20067;-47
2021/08/13 02:07:13;;;;;;;2.50;2.10;;;22.70;71.80;;;;;;5092769;28;20036;-43
2021/08/13 02:09:39;;;;;;;2.40;2.08;;;22.70;71.80;;;;;;5093747;28;20044;-46
2021/08/13 02:12:06;;;;;;;2.00;1.80;;;22.70;71.80;;;;;;5093595;28;20172;-47
2021/08/13 02:14:32;;;;;;;1.92;1.70;;;22.70;71.80;;;;;;5093003;28;20048;-45
2021/08/13 02:17:00;;;;;;;2.60;2.20;;;22.70;71.80;;;;;;5093548;28;20039;-45
2021/08/13 02:19:42;;;;;;;2.40;2.20;;;22.70;71.80;;;;;;5092762;28;20375;-48
2021/08/13 02:22:09;;;;;;;2.45;2.00;;;22.70;71.80;;;;;;5092807;28;20040;-47
2021/08/13 02:24:34;;;;;;;2.28;2.08;;;22.60;71.80;;;;;;5092585;28;20048;-44
2021/08/13 02:27:04;;;;;;;2.25;2.00;;;22.60;71.80;;;;;;5091808;28;20408;-44
2021/08/13 02:29:30;;;;;;;2.75;2.30;;;22.60;71.80;;;;;;5090476;28;20123;-43
2021/08/13 02:31:56;;;;;;;2.38;2.00;;;22.60;71.80;;;;;;5092990;28;20488;-45
2021/08/13 02:34:21;;;;;;;2.20;2.00;;;22.50;71.70;;;;;;5092661;28;20039;-44
2021/08/13 02:37:08;;;;;;;2.45;2.17;;;22.60;71.80;;;;;;5092287;28;20056;-44
2021/08/13 02:39:56;;;;;;;2.50;2.30;;;22.60;71.80;;;;;;5089991;28;20111;-48
2021/08/13 02:42:30;;;;;;;2.63;2.10;;;22.60;71.80;;;;;;5091634;28;20035;-43
2021/08/13 02:44:59;;;;;;;3.40;2.35;;;22.60;71.80;;;;;;5090434;28;20093;-46
2021/08/13 02:47:28;;;;;;;2.35;2.15;;;22.60;71.80;;;;;;5092957;28;20096;-45
2021/08/13 02:49:59;;;;;;;2.95;2.42;;;22.60;71.80;;;;;;5092551;28;20036;-44
2021/08/13 02:52:29;;;;;;;2.65;1.90;;;22.60;71.80;;;;;;5092342;28;20104;-45
2021/08/13 02:55:02;;;;;;;2.30;2.00;;;22.60;71.90;;;;;;5091813;28;20040;-46
2021/08/13 02:57:33;;;;;;;2.95;2.15;;;22.60;71.90;;;;;;5092888;28;20085;-47
2021/08/13 03:00:02;;;;;;;2.30;2.10;;;22.60;71.90;;;;;;5092245;28;20044;-47
2021/08/13 03:02:31;;;;;;;2.72;2.38;;;22.60;71.90;;;;;;5092835;28;20051;-45
2021/08/13 03:04:58;;;;;;;2.90;2.30;;;22.60;71.90;;;;;;5092300;28;20041;-45
2021/08/13 03:07:26;;;;;;;3.20;2.38;;;22.60;71.90;;;;;;5092922;28;20036;-44
2021/08/13 03:09:52;;;;;;;2.67;2.13;;;22.60;71.90;;;;;;5089791;28;20047;-48
2021/08/13 03:12:19;;;;;;;2.13;1.90;;;22.60;71.90;;;;;;5092639;28;20468;-43
2021/08/13 03:14:46;;;;;;;2.30;2.10;;;22.60;71.90;;;;;;5092073;28;20074;-45
2021/08/13 03:17:13;;;;;;;2.95;2.45;;;22.60;71.90;;;;;;5092574;28;20127;-44
2021/08/13 03:19:38;;;;;;;3.97;2.25;;;22.60;71.90;;;;;;5092294;28;20049;-47
2021/08/13 03:22:05;;;;;;;2.28;2.05;;;22.60;71.90;;;;;;5092219;28;20060;-46
2021/08/13 03:24:36;;;;;;;2.33;2.05;;;22.60;71.90;;;;;;5088958;28;20450;-44
2021/08/13 03:27:03;;;;;;;2.50;2.20;;;22.60;71.90;;;;;;5091636;28;20090;-45
2021/08/13 03:29:29;;;;;;;2.67;2.17;;;22.60;71.90;;;;;;5092020;28;20083;-47
2021/08/13 03:32:00;;;;;;;2.97;2.40;;;22.60;72.00;;;;;;5091711;28;20589;-45
2021/08/13 03:34:26;;;;;;;2.28;2.08;;;22.60;72.00;;;;;;5092072;28;20594;-45
2021/08/13 03:36:52;;;;;;;2.35;2.13;;;22.60;72.00;;;;;;5092045;28;20044;-44
2021/08/13 03:39:18;;;;;;;2.97;2.30;;;22.60;72.00;;;;;;5091634;28;20506;-49
2021/08/13 03:41:44;;;;;;;2.30;2.03;;;22.60;72.00;;;;;;5091665;28;20047;-45
2021/08/13 03:44:10;;;;;;;2.63;2.25;;;22.50;71.90;;;;;;5089543;28;20036;-45
2021/08/13 03:46:35;;;;;;;2.60;2.22;;;22.50;71.90;;;;;;5091900;28;20158;-46
2021/08/13 03:49:01;;;;;;;2.28;2.08;;;22.50;71.90;;;;;;5091354;28;20040;-45
2021/08/13 03:51:27;;;;;;;2.67;2.10;;;22.60;72.00;;;;;;5089491;28;20052;-45
2021/08/13 03:53:53;;;;;;;2.22;2.00;;;22.50;72.00;;;;;;5091125;28;20145;-46
2021/08/13 03:56:19;;;;;;;2.38;1.95;;;22.50;71.90;;;;;;5091528;28;20040;-49
2021/08/13 03:58:44;;;;;;;2.75;2.33;;;22.50;72.00;;;;;;5092008;28;20477;-48
2021/08/13 04:01:10;;;;;;;2.28;2.08;;;22.50;72.00;;;;;;5088709;28;20480;-48
2021/08/13 04:03:36;;;;;;;2.33;1.90;;;22.50;72.00;;;;;;5090749;28;20044;-45
2021/08/13 04:06:03;;;;;;;2.80;2.22;;;22.50;72.00;;;;;;5089146;28;20644;-46
2021/08/13 04:08:29;;;;;;;2.13;1.90;;;22.50;72.00;;;;;;5090379;28;20052;-46
2021/08/13 04:10:55;;;;;;;3.15;2.20;;;22.50;72.00;;;;;;5090820;28;20113;-48
2021/08/13 04:13:21;;;;;;;2.60;2.20;;;22.50;72.00;;;;;;5091111;28;20109;-49
2021/08/13 04:15:46;;;;;;;2.25;2.03;;;22.50;72.00;;;;;;5091451;28;20422;-47
2021/08/13 04:18:12;;;;;;;2.58;2.10;;;22.50;72.00;;;;;;5092111;28;20040;-46
2021/08/13 04:20:38;;;;;;;2.30;2.10;;;22.50;72.00;;;;;;5091488;28;20117;-47
2021/08/13 04:23:04;;;;;;;2.63;2.10;;;22.50;72.00;;;;;;5091395;28;20048;-46
2021/08/13 04:25:30;;;;;;;2.38;2.17;;;22.40;72.00;;;;;;5087844;28;20051;-46
2021/08/13 04:27:56;;;;;;;2.28;1.90;;;22.50;72.00;;;;;;5090716;28;20048;-48
2021/08/13 04:30:24;;;;;;;2.35;2.03;;;22.50;72.00;;;;;;5091268;28;20047;-45
2021/08/13 04:32:50;;;;;;;2.70;2.38;;;22.50;72.10;;;;;;5091646;28;20044;-48
2021/08/13 04:35:16;;;;;;;2.50;2.13;;;22.50;72.10;;;;;;5091035;28;20424;-44
2021/08/13 04:37:41;;;;;;;2.28;2.00;;;22.50;72.10;;;;;;5090715;28;20056;-47
2021/08/13 04:40:08;;;;;;;2.53;2.28;;;22.50;72.10;;;;;;5091273;28;20036;-45
2021/08/13 04:42:38;;;;;;;2.58;2.25;;;22.50;72.10;;;;;;5091189;28;20055;-48
2021/08/13 04:45:05;;;;;;;2.45;2.20;;;22.50;72.10;;;;;;5091129;28;20493;-47
2021/08/13 04:47:30;;;;;;;2.67;2.13;;;22.50;72.10;;;;;;5087932;28;20052;-46
2021/08/13 04:49:56;;;;;;;2.20;2.00;;;22.50;72.10;;;;;;5091097;28;20097;-46
2021/08/13 04:52:23;;;;;;;2.60;2.28;;;22.50;72.10;;;;;;5091394;28;20036;-46
2021/08/13 04:54:49;;;;;;;2.53;2.03;;;22.50;72.10;;;;;;5090341;28;20441;-46
2021/08/13 04:57:15;;;;;;;2.65;2.17;;;22.50;72.10;;;;;;5090637;28;20058;-46
2021/08/13 04:59:43;;;;;;;2.28;2.00;;;22.50;72.10;;;;;;5089943;28;20052;-47
2021/08/13 05:02:11;;;;;;;2.47;2.00;;;22.50;72.10;;;;;;5088535;28;20128;-47
2021/08/13 05:04:37;;;;;;;2.28;2.08;;;22.50;72.10;;;;;;5094883;28;20126;-45
2021/08/13 05:07:03;;;;;;;2.42;2.10;;;22.40;72.00;;;;;;5094242;28;20151;-46
2021/08/13 05:09:30;;;;;;;2.60;2.10;;;22.50;72.10;;;;;;5091554;28;20504;-45
2021/08/13 05:11:59;;;;;;;2.70;2.00;;;22.50;72.10;;;;;;5095302;28;20121;-45
2021/08/13 05:14:28;;;;;;;2.17;1.98;;;22.50;72.10;;;;;;5094557;28;20211;-47
2021/08/13 05:16:53;;;;;;;3.05;2.38;;;22.40;72.10;;;;;;5094362;28;20443;-48
2021/08/13 05:19:19;;;;;;;3.25;2.45;;;22.40;72.10;;;;;;5094628;28;20046;-47
2021/08/13 05:21:45;;;;;;;2.58;2.30;;;22.50;72.20;;;;;;5094704;28;20109;-50
2021/08/13 05:24:11;;;;;;;2.72;2.38;;;22.50;72.20;;;;;;5091573;28;20114;-48
2021/08/13 05:26:41;;;;;;;2.55;2.25;;;22.40;72.10;;;;;;5094890;28;20109;-51
2021/08/13 05:29:09;;;;;;;2.88;2.28;;;22.50;72.90;;;;;;5094455;28;20051;-49
2021/08/13 05:31:46;;;;;;;2.67;2.47;;;22.40;72.10;;;;;;5093760;28;20511;-49
2021/08/13 05:34:12;;;;;;;2.83;2.15;;;22.50;72.20;;;;;;5094652;28;20068;-44
2021/08/13 05:36:39;;;;;;;2.45;2.00;;;22.40;72.20;;;;;;5093875;28;20044;-47
2021/08/13 05:39:05;;;;;;;2.38;2.17;;;22.40;72.20;;;;;;5093486;28;20158;-46
2021/08/13 05:41:32;;;;;;;2.55;2.15;;;22.40;72.20;;;;;;5093420;28;20054;-50
2021/08/13 05:43:57;;;;;;;2.67;2.40;;;22.40;72.20;;;;;;5094478;28;20055;-51
2021/08/13 05:46:23;;;;;;;2.65;2.00;;;22.40;72.20;;;;;;5094338;28;20092;-50
2021/08/13 05:48:49;;;;;;;2.63;2.08;;;22.40;72.20;;;;;;5094244;28;20051;-46
2021/08/13 05:51:15;;;;;;;2.80;2.22;;;22.40;72.20;;;;;;5094660;28;20518;-48
2021/08/13 05:53:40;;;;;;;2.95;2.40;;;22.40;72.20;;;;;;5092976;28;20393;-49
2021/08/13 05:56:06;;;;;;;2.33;2.00;;;22.50;72.20;;;;;;5094898;28;20047;-47
2021/08/13 05:58:32;;;;;;;2.45;2.20;;;22.40;72.20;;;;;;5094539;28;20048;-45
2021/08/13 06:00:57;;;;;;;2.50;2.10;;;22.40;72.20;;;;;;5094440;28;20051;-46
2021/08/13 06:03:23;;;;;;;2.33;1.90;;;22.40;72.20;;;;;;5092975;28;20043;-47
2021/08/13 06:05:49;;;;;;;2.45;2.22;;;22.40;72.20;;;;;;5094528;28;20488;-46
2021/08/13 06:08:15;;;;;;;2.70;2.03;;;22.40;72.30;;;;;;5093957;28;20043;-50
2021/08/13 06:10:41;;;;;;;2.67;2.28;;;22.40;72.30;;;;;;5093649;28;20492;-47
2021/08/13 06:13:07;;;;;;;3.00;2.17;;;22.40;72.30;;;;;;5093301;28;20481;-49
2021/08/13 06:15:32;;;;;;;2.33;2.00;;;22.40;72.30;;;;;;5093184;28;20451;-46
2021/08/13 06:17:58;;;;;;;2.33;1.90;;;22.40;72.30;;;;;;5093374;28;20048;-50
2021/08/13 06:20:25;;;;;;;2.30;2.03;;;22.40;72.30;;;;;;5094161;28;20496;-48
2021/08/13 06:22:51;;;;;;;2.28;2.03;;;22.40;72.30;;;;;;5093544;28;20044;-44
2021/08/13 06:25:17;;;;;;;2.80;2.30;;;22.40;72.30;;;;;;5094207;28;20451;-45
2021/08/13 06:27:43;;;;;;;2.28;1.90;;;22.40;72.30;;;;;;5093510;28;20538;-46
2021/08/13 06:30:12;;;;;;;2.58;2.10;;;22.40;72.30;;;;;;5093509;28;20062;-45
2021/08/13 06:32:37;;;;;;;2.45;2.15;;;22.40;72.30;;;;;;5093678;28;20040;-45
2021/08/13 06:35:07;;;;;;;2.67;2.33;;;22.40;72.30;;;;;;5093869;28;20055;-47
2021/08/13 06:37:41;;;;;;;2.45;1.80;;;22.40;72.30;;;;;;5093386;28;20090;-45
2021/08/13 06:40:08;;;;;;;3.70;2.60;;;22.40;72.70;;;;;;5092729;28;20079;-46
2021/08/13 06:42:33;;;;;;;3.38;2.58;;;22.40;72.30;;;;;;5093730;28;20040;-48
2021/08/13 06:44:59;;;;;;;2.25;1.83;;;22.40;72.30;;;;;;5094141;28;20052;-48
2021/08/13 06:47:25;;;;;;;2.55;2.05;;;22.40;72.30;;;;;;5093320;28;20527;-50
2021/08/13 06:49:50;;;;;;;2.95;2.28;;;22.40;72.30;;;;;;5092192;28;20409;-48
2021/08/13 06:52:16;;;;;;;2.40;2.13;;;22.40;72.30;;;;;;5093360;28;20040;-49
2021/08/13 06:54:41;;;;;;;2.38;2.05;;;22.40;72.30;;;;;;5093168;28;20052;-48
2021/08/13 06:57:07;;;;;;;3.08;2.35;;;22.40;72.30;;;;;;5093007;28;20476;-47
2021/08/13 06:59:33;;;;;;;3.05;2.25;;;22.40;72.30;;;;;;5091973;28;20453;-45
2021/08/13 07:01:59;;;;;;;2.60;2.25;;;22.40;72.30;;;;;;5093290;28;20060;-48
2021/08/13 07:04:25;;;;;;;2.58;2.17;;;22.40;72.30;;;;;;5091892;28;20040;-47
2021/08/13 07:06:51;;;;;;;2.17;1.90;;;22.40;72.30;;;;;;5091862;28;20067;-49
2021/08/13 07:09:16;;;;;;;2.10;1.65;;;22.40;72.30;;;;;;5091904;28;20480;-45
2021/08/13 07:11:42;;;;;;;2.17;1.90;;;22.40;72.30;;;;;;5093109;28;20036;-48
2021/08/13 07:14:08;;;;;;;1.98;1.70;;;22.40;72.30;;;;;;5092434;28;20539;-45
2021/08/13 07:16:34;;;;;;;2.22;2.00;;;22.40;72.30;;;;;;5092394;28;20496;-48
2021/08/13 07:18:59;;;;;;;2.20;2.00;;;22.40;72.30;;;;;;5091625;28;20075;-44
2021/08/13 07:21:25;;;;;;;2.35;2.05;;;22.40;72.30;;;;;;5091956;28;20081;-46
2021/08/13 07:23:51;;;;;;;2.20;1.95;;;22.40;72.20;;;;;;5092432;28;20384;-44
2021/08/13 07:26:16;;;;;;;2.28;1.80;;;22.40;72.30;;;;;;5090692;28;20048;-44
2021/08/13 07:28:42;;;;;;;2.75;2.10;;;22.40;72.20;;;;;;5092175;28;20105;-46
2021/08/13 07:31:08;;;;;;;2.40;2.20;;;22.40;72.20;;;;;;5091647;28;20082;-46
2021/08/13 07:33:34;;;;;;;2.53;1.92;;;22.50;72.30;;;;;;5091681;28;20337;-45
2021/08/13 07:36:00;;;;;;;2.50;1.90;;;22.50;72.30;;;;;;5091724;28;20488;-45
2021/08/13 07:38:25;;;;;;;2.00;1.80;;;22.50;72.20;;;;;;5091622;28;20177;-46
2021/08/13 07:40:51;;;;;;;1.73;1.45;;;22.50;72.20;;;;;;5091770;28;20036;-47
2021/08/13 07:43:17;;;;;;;2.50;1.98;;;22.50;72.20;;;;;;5092426;28;20048;-47
2021/08/13 07:45:42;;;;;;;2.15;1.88;;;22.50;72.20;;;;;;5092588;28;20088;-47
2021/08/13 07:48:08;;;;;;;2.47;2.10;;;22.50;72.20;;;;;;5092234;28;20048;-51
2021/08/13 07:50:34;;;;;;;2.17;1.70;;;22.50;72.20;;;;;;5088932;28;20050;-46
2021/08/13 07:52:59;;;;;;;2.03;1.73;;;22.50;72.20;;;;;;5091379;28;20047;-45
2021/08/13 07:55:25;;;;;;;2.67;2.00;;;22.50;72.20;;;;;;5091936;28;20047;-46
2021/08/13 07:57:51;;;;;;;2.20;1.75;;;22.50;72.20;;;;;;5090957;28;20411;-43
2021/08/13 08:00:17;;;;;;;2.38;2.00;;;22.50;72.20;;;;;;5091504;28;20046;-44
2021/08/13 08:02:43;;;;;;;2.47;1.95;;;22.50;72.20;;;;;;5091129;28;20043;-47
2021/08/13 08:05:09;;;;;;;2.25;1.92;;;22.50;72.10;;;;;;5090450;28;20122;-48
2021/08/13 08:07:36;;;;;;;2.90;2.15;;;22.50;72.20;;;;;;5091130;28;20048;-46
2021/08/13 08:10:02;;;;;;;2.10;1.83;;;22.50;72.20;;;;;;5090905;28;20130;-44
2021/08/13 08:12:28;;;;;;;1.83;1.63;;;22.50;72.10;;;;;;5091617;28;20048;-48
2021/08/13 08:14:53;;;;;;;2.10;1.90;;;22.50;72.10;;;;;;5091639;28;20127;-49
2021/08/13 08:17:19;;;;;;;2.13;1.92;;;22.50;72.10;;;;;;5092222;28;20048;-49
2021/08/13 08:19:45;;;;;;;2.67;2.30;;;22.50;72.10;;;;;;5091352;28;20161;-44
2021/08/13 08:22:11;;;;;;;2.65;2.35;;;22.50;72.10;;;;;;5091090;28;20044;-46
2021/08/13 08:24:36;;;;;;;2.60;2.00;;;22.50;72.10;;;;;;5090561;28;20101;-44
2021/08/13 08:27:02;;;;;;;2.47;1.98;;;22.60;72.20;;;;;;5091054;28;20055;-43
2021/08/13 08:29:28;;;;;;;2.25;1.83;;;22.50;72.10;;;;;;5090963;28;20455;-44
2021/08/13 08:31:53;;;;;;;2.25;1.73;;;22.60;72.20;;;;;;5091370;28;20044;-44
2021/08/13 08:34:19;;;;;;;2.10;1.58;;;22.60;72.20;;;;;;5091213;28;20059;-45
2021/08/13 08:36:45;;;;;;;2.45;2.00;;;22.60;72.20;;;;;;5085911;28;20203;-41
2021/08/13 08:39:10;;;;;;;2.55;2.00;;;22.60;72.20;;;;;;5092503;28;20055;-42
2021/08/13 08:41:37;;;;;;;1.83;1.70;;;22.60;72.20;;;;;;5094954;28;20480;-44
2021/08/13 08:44:03;;;;;;;2.05;1.85;;;22.60;72.10;;;;;;5094660;28;20055;-44
2021/08/13 08:46:30;;;;;;;1.70;1.60;;;22.60;72.80;;;;;;5095622;28;20044;-44
2021/08/13 08:48:56;;;;;;;2.35;1.80;;;22.60;72.10;;;;;;5094853;28;20415;-43
2021/08/13 08:51:24;;;;;;;2.65;1.80;;;22.60;72.10;;;;;;5095121;28;20051;-44
2021/08/13 08:53:55;;;;;;;2.17;1.90;;;22.60;72.10;;;;;;5093819;28;20105;-46
2021/08/13 08:56:26;;;;;;;2.30;1.95;;;22.60;72.10;;;;;;5091895;28;20545;-46
2021/08/13 08:58:52;;;;;;;2.10;1.90;;;22.60;72.10;;;;;;5095234;28;20147;-44
2021/08/13 09:01:18;;;;;;;1.95;1.67;;;22.60;72.10;;;;;;5094277;28;20536;-44
2021/08/13 09:03:45;;;;;;;2.13;1.80;;;22.60;72.10;;;;;;5094731;28;20128;-42
2021/08/13 09:06:11;;;;;;;2.30;2.10;;;22.60;72.10;;;;;;5094659;28;20040;-45
2021/08/13 09:08:38;;;;;;;2.40;2.00;;;22.60;72.00;;;;;;5094633;28;20047;-44
2021/08/13 09:11:04;;;;;;;3.45;2.05;;;22.60;72.00;;;;;;5093410;28;20036;-46
2021/08/13 09:13:32;;;;;;;2.33;2.10;;;22.60;72.00;;;;;;5094847;28;20044;-44
2021/08/13 09:16:10;;;;;;;2.25;2.00;;;22.60;72.00;;;;;;5093918;28;20038;-43
2021/08/13 09:18:35;;;;;;;2.08;1.88;;;22.70;72.00;;;;;;5094357;28;20386;-45
2021/08/13 09:21:01;;;;;;;2.10;1.80;;;22.70;72.00;;;;;;5094034;28;20078;-46
2021/08/13 09:23:32;;;;;;;2.03;1.80;;;22.60;72.00;;;;;;5095428;28;20047;-47
2021/08/13 09:26:02;;;;;;;1.90;1.67;;;22.70;72.70;;;;;;5094534;28;20411;-47
2021/08/13 09:28:47;;;;;;;2.83;2.13;;;22.70;72.00;;;;;;5091457;28;20046;-47
2021/08/13 09:31:17;;;;;;;;;;;22.70;72.00;;;;;;5092472;28;20488;-44
2021/08/13 09:33:50;;;;;;;2.50;2.20;;;22.70;71.90;;;;;;5093599;28;19965;-45
2021/08/13 09:36:26;;;;;;;2.13;1.80;;;22.60;72.00;;;;;;5094065;28;20052;-46
2021/08/13 09:39:08;;;;;;;2.80;2.05;;;22.70;72.00;;;;;;5094012;28;20559;-48
2021/08/13 09:41:48;;;;;;;2.45;2.20;;;22.70;72.00;;;;;;5094005;28;20048;-48
2021/08/13 09:44:24;;;;;;;2.20;1.98;;;22.70;71.90;;;;;;5093760;28;20097;-49
2021/08/13 09:47:11;;;;;;;2.47;2.28;;;22.70;71.90;;;;;;5093960;28;20052;-44
2021/08/13 09:49:39;;;;;;;2.88;2.50;;;22.70;71.90;;;;;;5091688;28;20142;-41
2021/08/13 09:52:18;;;;;;;2.10;1.90;;;22.70;71.90;;;;;;5093088;28;20043;-45
2021/08/13 09:54:48;;;;;;;2.88;2.58;;;22.70;71.90;;;;;;5093658;28;20068;-45
2021/08/13 09:57:16;;;;;;;2.38;2.17;;;22.70;71.90;;;;;;5093653;28;20365;-44
2021/08/13 09:59:59;;;;;;;2.40;2.05;;;22.70;71.90;;;;;;5093301;28;20063;-45
2021/08/13 10:02:25;;;;;;;2.10;1.90;;;22.70;71.90;;;;;;5093651;28;20119;-41
2021/08/13 10:04:51;;;;;;;5.80;3.33;;;22.70;71.90;;;;;;5094030;28;20120;-39
2021/08/13 10:07:20;;;;;;;5.88;3.78;;;22.70;71.80;;;;;;5094002;28;20051;-37
2021/08/13 10:09:48;;;;;;;5.07;3.35;;;22.70;71.70;;;;;;5093735;28;20051;-38
2021/08/13 10:12:14;;;;;;;4.03;3.20;;;22.70;71.70;;;;;;5093421;28;20036;-39
2021/08/13 10:14:42;;;;;;;4.85;3.25;;;22.70;71.70;;;;;;5093483;28;20055;-48
2021/08/13 10:17:13;;;;;;;4.47;3.50;;;22.70;71.70;;;;;;5093644;28;20044;-44
2021/08/13 10:19:41;;;;;;;4.95;3.13;;;22.70;71.70;;;;;;5093934;28;20094;-39
2021/08/13 10:22:07;;;;;;;4.10;3.03;;;22.70;71.70;;;;;;5093330;28;20048;-45
2021/08/13 10:24:34;;;;;;;12.23;4.38;;;22.70;71.70;;;;;;5093413;28;20047;-41
2021/08/13 10:27:02;;;;;;;6.07;3.63;;;22.80;71.60;;;;;;5093617;28;20040;-41
2021/08/13 10:29:29;;;;;;;4.90;3.65;;;22.80;71.50;;;;;;5093325;28;20054;-43
2021/08/13 10:31:56;;;;;;;4.93;3.58;;;22.80;71.40;;;;;;5093228;28;20044;-42
2021/08/13 10:34:21;;;;;;;6.88;4.00;;;22.80;71.40;;;;;;5093182;28;20036;-39
2021/08/13 10:36:49;;;;;;;5.20;3.40;;;22.80;71.40;;;;;;5093582;28;20496;-41
2021/08/13 10:39:20;;;;;;;4.60;3.80;;;22.80;71.40;;;;;;5093392;28;20079;-40
2021/08/13 10:41:50;;;;;;;5.85;3.58;;;22.80;71.40;;;;;;5093679;28;20052;-43
2021/08/13 10:44:19;;;;;;;6.07;3.78;;;22.80;71.40;;;;;;5093042;28;20051;-40
2021/08/13 10:46:47;;;;;;;4.75;3.35;;;22.90;71.40;;;;;;5092961;28;20044;-40
2021/08/13 10:49:17;;;;;;;5.00;3.10;;;22.90;71.40;;;;;;5093423;28;20047;-40
2021/08/13 10:51:43;;;;;;;3.78;3.13;;;22.90;71.40;;;;;;5093651;28;20123;-40
2021/08/13 10:54:19;;;;;;;4.05;2.97;;;22.90;71.40;;;;;;5093049;28;20484;-42
2021/08/13 10:56:48;;;;;;;5.22;3.33;;;22.90;71.40;;;;;;5093555;28;20044;-42
2021/08/13 10:59:39;;;;;;;5.28;3.20;;;22.90;71.40;;;;;;5093344;28;20040;-41
2021/08/13 11:02:16;;;;;;;3.70;3.10;;;22.90;71.40;;;;;;5092670;28;20051;-39
2021/08/13 11:04:52;;;;;;;4.68;3.38;;;22.90;71.40;;;;;;5092449;28;20125;-40
2021/08/13 11:07:59;;;;;;;3.67;3.10;;;22.90;71.40;;;;;;5093266;28;20044;-39
2021/08/13 11:10:38;;;;;;;3.97;3.00;;;22.90;71.40;;;;;;5030936;28;20069;-40
2021/08/13 11:13:12;;;;;;;3.90;3.10;;;22.90;71.40;;;;;;5033955;28;20052;-40
2021/08/13 11:15:38;;;;;;;4.77;3.20;;;22.90;71.40;;;;;;5050065;28;20051;-38
2021/08/13 11:18:32;;;;;;;3.67;2.97;;;22.90;71.40;;;;;;5050341;28;20135;-42
2021/08/13 11:20:59;;;;;;;4.00;3.20;;;22.90;71.40;;;;;;5050868;28;20056;-42
2021/08/13 11:23:25;;;;;;;5.57;2.90;;;22.90;71.40;;;;;;5049516;28;20041;-39
2021/08/13 11:25:52;;;;;;;3.53;2.92;;;22.90;71.40;;;;;;5050207;28;20584;-41
2021/08/13 11:28:19;;;;;;;3.72;2.88;;;22.90;71.40;;;;;;5050092;28;20087;-37
2021/08/13 11:30:46;;;;;;;4.05;3.05;;;22.90;71.40;;;;;;5049838;28;20079;-44
2021/08/13 11:33:29;;;;;;;3.75;2.92;;;22.90;71.40;;;;;;5049228;28;20052;-42
2021/08/13 11:35:57;;;;;;;3.88;3.05;;;22.90;71.40;;;;;;5050042;28;20172;-41
2021/08/13 11:38:44;;;;;;;4.28;2.90;;;22.90;71.40;;;;;;5049723;28;20049;-42
2021/08/13 11:41:24;;;;;;;4.45;3.03;;;23.00;71.40;;;;;;5049712;28;20068;-45
2021/08/13 11:43:57;;;;;;;3.72;2.92;;;22.90;71.40;;;;;;5049165;28;20045;-40
2021/08/13 11:46:24;;;;;;;4.93;3.08;;;22.90;71.40;;;;;;5058524;28;20580;-40
2021/08/13 11:48:58;;;;;;;3.88;2.80;;;23.00;71.50;;;;;;5071322;28;20051;-42
2021/08/13 11:51:25;;;;;;;3.53;2.85;;;23.00;71.40;;;;;;5072092;28;20041;-39
2021/08/13 11:53:51;;;;;;;4.35;2.70;;;23.00;71.40;;;;;;5081374;28;20040;-41
2021/08/13 11:56:25;;;;;;;5.10;3.10;;;23.00;71.40;;;;;;5091870;28;20048;-42
2021/08/13 11:59:05;;;;;;;3.50;2.80;;;23.00;71.40;;;;;;5092020;28;20056;-40
2021/08/13 12:01:50;;;;;;;3.22;2.60;;;23.00;71.40;;;;;;5091800;28;20136;-42
2021/08/13 12:04:20;;;;;;;3.75;2.85;;;23.00;71.40;;;;;;5090852;28;20182;-43
2021/08/13 12:07:08;;;;;;;4.28;3.13;;;23.00;71.40;;;;;;5091909;28;20494;-41
2021/08/13 12:09:36;;;;;;;3.08;2.75;;;23.00;71.40;;;;;;5091631;28;20044;-43
2021/08/13 12:12:07;;;;;;;4.60;3.33;;;23.00;71.40;;;;;;5091110;28;20055;-42
2021/08/13 12:14:37;;;;;;;3.78;2.80;;;23.00;71.40;;;;;;5091335;28;20492;-41
2021/08/13 12:17:03;;;;;;;3.63;2.88;;;23.00;71.40;;;;;;5091597;28;20048;-41
2021/08/13 12:19:29;;;;;;;3.42;2.63;;;23.00;71.30;;;;;;5091259;28;20055;-42
2021/08/13 12:22:04;;;;;;;4.50;2.63;;;23.00;71.30;;;;;;5091037;28;20546;-39
2021/08/13 12:24:31;;;;;;;3.42;2.60;;;23.00;71.30;;;;;;5090316;28;20495;-40
2021/08/13 12:27:01;;;;;;;3.50;2.63;;;23.00;71.30;;;;;;5090080;28;20071;-41
2021/08/13 12:29:28;;;;;;;3.58;2.97;;;23.00;71.40;;;;;;5091432;28;20040;-41
2021/08/13 12:31:56;;;;;;;4.00;2.63;;;23.00;71.40;;;;;;5091705;28;20127;-40
2021/08/13 12:34:23;;;;;;;3.60;2.70;;;23.00;71.30;;;;;;5087509;28;20043;-41
2021/08/13 12:37:09;;;;;;;2.88;2.33;;;23.00;71.30;;;;;;5074393;28;20045;-41
2021/08/13 12:39:46;;;;;;;3.67;2.53;;;23.10;71.30;;;;;;5071661;28;20040;-43
2021/08/13 12:42:16;;;;;;;2.90;2.40;;;23.00;71.30;;;;;;5070890;28;20048;-41
2021/08/13 12:44:44;;;;;;;3.63;2.63;;;23.10;71.40;;;;;;5075862;28;20062;-41
2021/08/13 12:47:11;;;;;;;3.50;2.63;;;23.00;71.30;;;;;;5090906;28;20040;-41
2021/08/13 12:49:39;;;;;;;2.90;2.20;;;23.10;71.30;;;;;;5090500;28;20048;-41
2021/08/13 12:52:18;;;;;;;4.40;3.08;;;23.10;71.40;;;;;;5091168;28;20455;-42
2021/08/13 12:54:45;;;;;;;3.47;2.50;;;23.10;71.30;;;;;;5091298;28;20115;-41